sensor_id;sensor_type;location;lat;lon;timestamp;pressure;altitude;pressure_sealevel;temperature;humidity
29247;BME280;16272;48.188;9.964;2022-08-18T00:01:41;95572.06;;;20.84;72.80
29247;BME280;16272;48.188;9.964;2022-08-18T00:04:08;95571.78;;;20.92;72.76
29247;BME280;16272;48.188;9.964;2022-08-18T00:06:34;95573.47;;;20.93;73.05
29247;BME280;16272;48.188;9.964;2022-08-18T00:09:02;95567.09;;;20.55;75.07
29247;BME280;16272;48.188;9.964;2022-08-18T00:11:32;95554.13;;;19.82;78.66
29247;BME280;16272;48.188;9.964;2022-08-18T00:13:57;95557.19;;;19.92;78.86
29247;BME280;16272;48.188;9.964;2022-08-18T00:16:23;95562.84;;;20.16;78.01
29247;BME280;16272;48.188;9.964;2022-08-18T00:18:48;95549.44;;;20.85;75.04
29247;BME280;16272;48.188;9.964;2022-08-18T00:21:16;95549.81;;;20.88;74.51
29247;BME280;16272;48.188;9.964;2022-08-18T00:23:42;95546.44;;;20.74;74.70
29247;BME280;16272;48.188;9.964;2022-08-18T00:26:13;95547.16;;;20.63;74.87
29247;BME280;16272;48.188;9.964;2022-08-18T00:28:38;95559.50;;;20.20;77.09
29247;BME280;16272;48.188;9.964;2022-08-18T00:31:04;95548.13;;;20.12;77.62
29247;BME280;16272;48.188;9.964;2022-08-18T00:33:30;95541.44;;;20.21;77.44
29247;BME280;16272;48.188;9.964;2022-08-18T00:35:55;95538.63;;;20.34;76.27
29247;BME280;16272;48.188;9.964;2022-08-18T00:38:21;95544.72;;;20.55;75.94
29247;BME280;16272;48.188;9.964;2022-08-18T00:40:48;95545.59;;;20.49;76.72
29247;BME280;16272;48.188;9.964;2022-08-18T00:43:23;95540.63;;;20.46;76.52
29247;BME280;16272;48.188;9.964;2022-08-18T00:45:51;95532.84;;;20.31;77.19
29247;BME280;16272;48.188;9.964;2022-08-18T00:48:16;95544.09;;;21.22;72.11
29247;BME280;16272;48.188;9.964;2022-08-18T00:50:54;95533.81;;;20.68;76.29
29247;BME280;16272;48.188;9.964;2022-08-18T00:53:43;95525.78;;;21.05;74.02
29247;BME280;16272;48.188;9.964;2022-08-18T00:56:20;95519.25;;;21.13;73.71
29247;BME280;16272;48.188;9.964;2022-08-18T01:02:03;95526.25;;;21.21;71.52
29247;BME280;16272;48.188;9.964;2022-08-18T01:07:22;95524.13;;;21.23;72.90
29247;BME280;16272;48.188;9.964;2022-08-18T01:09:50;95520.59;;;20.60;75.51
29247;BME280;16272;48.188;9.964;2022-08-18T01:12:17;95518.28;;;20.64;75.08
29247;BME280;16272;48.188;9.964;2022-08-18T01:14:49;95519.47;;;21.11;73.06
29247;BME280;16272;48.188;9.964;2022-08-18T01:17:14;95509.03;;;20.97;74.24
29247;BME280;16272;48.188;9.964;2022-08-18T01:20:17;95508.81;;;21.17;72.81
29247;BME280;16272;48.188;9.964;2022-08-18T01:23:11;95515.59;;;20.38;76.82
29247;BME280;16272;48.188;9.964;2022-08-18T01:25:43;95494.34;;;20.49;77.06
29247;BME280;16272;48.188;9.964;2022-08-18T01:28:25;95476.53;;;20.41;76.74
29247;BME280;16272;48.188;9.964;2022-08-18T01:30:52;95467.13;;;20.75;73.74
29247;BME280;16272;48.188;9.964;2022-08-18T01:33:24;95465.03;;;20.78;73.64
29247;BME280;16272;48.188;9.964;2022-08-18T01:35:51;95466.81;;;20.40;73.99
29247;BME280;16272;48.188;9.964;2022-08-18T01:38:19;95461.53;;;20.52;73.57
29247;BME280;16272;48.188;9.964;2022-08-18T01:40:52;95474.69;;;20.16;75.44
29247;BME280;16272;48.188;9.964;2022-08-18T01:43:19;95465.47;;;20.49;72.43
29247;BME280;16272;48.188;9.964;2022-08-18T01:45:45;95486.09;;;20.44;72.75
29247;BME280;16272;48.188;9.964;2022-08-18T01:48:11;95474.34;;;20.31;73.54
29247;BME280;16272;48.188;9.964;2022-08-18T01:50:39;95467.91;;;20.32;72.88
29247;BME280;16272;48.188;9.964;2022-08-18T01:53:06;95458.72;;;19.51;76.22
29247;BME280;16272;48.188;9.964;2022-08-18T01:55:34;95463.66;;;19.54;74.55
29247;BME280;16272;48.188;9.964;2022-08-18T01:58:02;95469.72;;;19.88;73.89
29247;BME280;16272;48.188;9.964;2022-08-18T02:00:28;95462.06;;;19.46;75.99
29247;BME280;16272;48.188;9.964;2022-08-18T02:03:12;95470.69;;;19.17;77.88
29247;BME280;16272;48.188;9.964;2022-08-18T02:05:44;95475.69;;;19.13;76.97
29247;BME280;16272;48.188;9.964;2022-08-18T02:08:12;95458.56;;;19.85;73.63
29247;BME280;16272;48.188;9.964;2022-08-18T02:10:39;95455.16;;;19.57;75.47
29247;BME280;16272;48.188;9.964;2022-08-18T02:13:05;95462.72;;;19.74;73.57
29247;BME280;16272;48.188;9.964;2022-08-18T02:15:35;95455.34;;;19.62;73.62
29247;BME280;16272;48.188;9.964;2022-08-18T02:18:00;95454.41;;;19.82;73.16
29247;BME280;16272;48.188;9.964;2022-08-18T02:20:26;95447.38;;;19.04;76.23
29247;BME280;16272;48.188;9.964;2022-08-18T02:22:52;95453.81;;;19.41;74.14
29247;BME280;16272;48.188;9.964;2022-08-18T02:25:23;95447.16;;;19.44;73.96
29247;BME280;16272;48.188;9.964;2022-08-18T02:27:49;95450.25;;;19.09;75.36
29247;BME280;16272;48.188;9.964;2022-08-18T02:30:16;95444.09;;;18.75;77.73
29247;BME280;16272;48.188;9.964;2022-08-18T02:32:42;95432.25;;;19.80;72.68
29247;BME280;16272;48.188;9.964;2022-08-18T02:35:10;95430.44;;;18.90;76.50
29247;BME280;16272;48.188;9.964;2022-08-18T02:37:36;95430.25;;;20.00;72.45
29247;BME280;16272;48.188;9.964;2022-08-18T02:40:06;95436.59;;;19.42;74.15
29247;BME280;16272;48.188;9.964;2022-08-18T02:42:31;95436.19;;;19.00;76.69
29247;BME280;16272;48.188;9.964;2022-08-18T02:44:57;95432.13;;;19.29;74.27
29247;BME280;16272;48.188;9.964;2022-08-18T02:47:23;95428.78;;;18.96;75.25
29247;BME280;16272;48.188;9.964;2022-08-18T02:49:48;95429.19;;;18.92;75.05
29247;BME280;16272;48.188;9.964;2022-08-18T02:52:15;95429.13;;;19.06;75.75
29247;BME280;16272;48.188;9.964;2022-08-18T02:54:41;95441.88;;;19.24;74.36
29247;BME280;16272;48.188;9.964;2022-08-18T02:57:08;95437.31;;;19.24;74.18
29247;BME280;16272;48.188;9.964;2022-08-18T02:59:35;95445.31;;;19.38;73.10
29247;BME280;16272;48.188;9.964;2022-08-18T03:02:01;95444.97;;;19.27;73.02
29247;BME280;16272;48.188;9.964;2022-08-18T03:04:30;95437.03;;;19.01;74.15
29247;BME280;16272;48.188;9.964;2022-08-18T03:06:59;95426.59;;;19.18;73.97
29247;BME280;16272;48.188;9.964;2022-08-18T03:09:25;95426.44;;;19.44;72.28
29247;BME280;16272;48.188;9.964;2022-08-18T03:11:51;95423.94;;;19.43;71.99
29247;BME280;16272;48.188;9.964;2022-08-18T03:14:17;95412.38;;;19.04;73.30
29247;BME280;16272;48.188;9.964;2022-08-18T03:16:46;95418.41;;;18.99;73.91
29247;BME280;16272;48.188;9.964;2022-08-18T03:19:12;95408.97;;;19.22;72.67
29247;BME280;16272;48.188;9.964;2022-08-18T03:21:44;95414.50;;;19.34;70.80
29247;BME280;16272;48.188;9.964;2022-08-18T03:24:10;95411.63;;;19.28;70.47
29247;BME280;16272;48.188;9.964;2022-08-18T03:26:40;95394.00;;;18.94;73.49
29247;BME280;16272;48.188;9.964;2022-08-18T03:29:06;95409.00;;;18.57;76.39
29247;BME280;16272;48.188;9.964;2022-08-18T03:31:35;95406.03;;;18.78;74.25
29247;BME280;16272;48.188;9.964;2022-08-18T03:34:04;95403.97;;;18.73;74.89
29247;BME280;16272;48.188;9.964;2022-08-18T03:36:33;95402.44;;;18.19;77.85
29247;BME280;16272;48.188;9.964;2022-08-18T03:39:05;95387.94;;;18.40;76.39
29247;BME280;16272;48.188;9.964;2022-08-18T03:41:30;95406.16;;;18.25;77.27
29247;BME280;16272;48.188;9.964;2022-08-18T03:43:56;95391.06;;;18.37;75.42
29247;BME280;16272;48.188;9.964;2022-08-18T03:46:22;95389.56;;;18.41;75.82
29247;BME280;16272;48.188;9.964;2022-08-18T03:48:49;95383.31;;;18.61;74.45
29247;BME280;16272;48.188;9.964;2022-08-18T03:51:18;95388.16;;;18.32;75.40
29247;BME280;16272;48.188;9.964;2022-08-18T03:53:45;95404.13;;;18.20;76.99
29247;BME280;16272;48.188;9.964;2022-08-18T03:56:14;95401.88;;;18.76;74.59
29247;BME280;16272;48.188;9.964;2022-08-18T03:58:50;95395.84;;;18.94;71.22
29247;BME280;16272;48.188;9.964;2022-08-18T04:01:18;95387.00;;;18.73;72.81
29247;BME280;16272;48.188;9.964;2022-08-18T04:03:47;95390.25;;;18.16;73.85
29247;BME280;16272;48.188;9.964;2022-08-18T04:06:18;95391.88;;;18.31;73.99
29247;BME280;16272;48.188;9.964;2022-08-18T04:08:44;95397.03;;;17.32;80.22
29247;BME280;16272;48.188;9.964;2022-08-18T04:11:11;95385.06;;;18.22;75.98
29247;BME280;16272;48.188;9.964;2022-08-18T04:13:39;95371.03;;;18.19;76.09
29247;BME280;16272;48.188;9.964;2022-08-18T04:16:05;95375.16;;;17.82;77.29
29247;BME280;16272;48.188;9.964;2022-08-18T04:18:31;95391.31;;;18.02;76.25
29247;BME280;16272;48.188;9.964;2022-08-18T04:21:03;95400.38;;;18.14;74.86
29247;BME280;16272;48.188;9.964;2022-08-18T04:23:29;95408.88;;;18.11;75.09
29247;BME280;16272;48.188;9.964;2022-08-18T04:25:58;95402.88;;;18.03;76.72
29247;BME280;16272;48.188;9.964;2022-08-18T04:28:24;95398.31;;;18.10;76.00
29247;BME280;16272;48.188;9.964;2022-08-18T04:30:50;95398.69;;;18.40;74.95
29247;BME280;16272;48.188;9.964;2022-08-18T04:33:15;95404.91;;;18.34;74.57
29247;BME280;16272;48.188;9.964;2022-08-18T04:35:41;95414.44;;;17.76;78.74
29247;BME280;16272;48.188;9.964;2022-08-18T04:38:21;95415.97;;;18.78;72.77
29247;BME280;16272;48.188;9.964;2022-08-18T04:40:47;95411.28;;;18.60;73.49
29247;BME280;16272;48.188;9.964;2022-08-18T04:43:13;95421.00;;;17.54;77.77
29247;BME280;16272;48.188;9.964;2022-08-18T04:45:41;95436.47;;;17.38;79.17
29247;BME280;16272;48.188;9.964;2022-08-18T04:48:08;95429.22;;;17.25;79.54
29247;BME280;16272;48.188;9.964;2022-08-18T04:50:35;95414.81;;;18.47;74.38
29247;BME280;16272;48.188;9.964;2022-08-18T04:53:01;95403.25;;;18.26;74.56
29247;BME280;16272;48.188;9.964;2022-08-18T04:55:53;95405.13;;;18.32;74.98
29247;BME280;16272;48.188;9.964;2022-08-18T04:58:21;95412.16;;;18.33;75.29
29247;BME280;16272;48.188;9.964;2022-08-18T05:00:56;95414.28;;;18.90;72.93
29247;BME280;16272;48.188;9.964;2022-08-18T05:03:22;95424.94;;;18.58;74.67
29247;BME280;16272;48.188;9.964;2022-08-18T05:05:56;95416.00;;;18.71;75.05
29247;BME280;16272;48.188;9.964;2022-08-18T05:08:23;95422.63;;;18.62;76.41
29247;BME280;16272;48.188;9.964;2022-08-18T05:10:53;95435.72;;;19.10;74.21
29247;BME280;16272;48.188;9.964;2022-08-18T05:13:19;95436.16;;;19.14;74.17
29247;BME280;16272;48.188;9.964;2022-08-18T05:15:44;95441.19;;;19.42;73.40
29247;BME280;16272;48.188;9.964;2022-08-18T05:18:09;95452.03;;;19.60;72.63
29247;BME280;16272;48.188;9.964;2022-08-18T05:20:36;95454.41;;;19.82;71.87
29247;BME280;16272;48.188;9.964;2022-08-18T05:23:05;95454.41;;;19.82;71.74
29247;BME280;16272;48.188;9.964;2022-08-18T05:25:34;95467.06;;;19.81;72.18
29247;BME280;16272;48.188;9.964;2022-08-18T05:28:04;95474.53;;;19.41;73.24
29247;BME280;16272;48.188;9.964;2022-08-18T05:30:34;95467.50;;;19.40;73.55
29247;BME280;16272;48.188;9.964;2022-08-18T05:33:10;95471.25;;;19.32;74.19
29247;BME280;16272;48.188;9.964;2022-08-18T05:35:42;95464.59;;;19.35;74.34
29247;BME280;16272;48.188;9.964;2022-08-18T05:41:11;95481.69;;;19.15;75.68
29247;BME280;16272;48.188;9.964;2022-08-18T05:43:39;95477.09;;;19.61;74.06
29247;BME280;16272;48.188;9.964;2022-08-18T05:46:08;95469.47;;;19.51;73.46
29247;BME280;16272;48.188;9.964;2022-08-18T05:48:35;95461.66;;;18.98;74.39
29247;BME280;16272;48.188;9.964;2022-08-18T05:51:13;95468.94;;;18.77;76.20
29247;BME280;16272;48.188;9.964;2022-08-18T05:53:41;95468.63;;;19.57;73.26
29247;BME280;16272;48.188;9.964;2022-08-18T05:56:34;95452.78;;;19.81;72.70
29247;BME280;16272;48.188;9.964;2022-08-18T05:59:13;95454.53;;;19.62;73.56
29247;BME280;16272;48.188;9.964;2022-08-18T06:01:44;95455.09;;;18.67;75.41
29247;BME280;16272;48.188;9.964;2022-08-18T06:04:22;95451.97;;;18.83;75.68
29247;BME280;16272;48.188;9.964;2022-08-18T06:06:51;95453.66;;;19.29;73.81
29247;BME280;16272;48.188;9.964;2022-08-18T06:09:25;95451.13;;;18.83;76.08
29247;BME280;16272;48.188;9.964;2022-08-18T06:11:57;95448.69;;;19.97;71.85
29247;BME280;16272;48.188;9.964;2022-08-18T06:14:38;95448.16;;;19.11;74.08
29247;BME280;16272;48.188;9.964;2022-08-18T06:35:17;95420.06;;;19.71;71.98
29247;BME280;16272;48.188;9.964;2022-08-18T06:40:47;95409.97;;;20.42;71.24
29247;BME280;16272;48.188;9.964;2022-08-18T06:43:13;95422.97;;;20.88;70.70
29247;BME280;16272;48.188;9.964;2022-08-18T06:45:40;95427.94;;;20.48;71.12
29247;BME280;16272;48.188;9.964;2022-08-18T06:48:20;95426.16;;;20.60;70.62
29247;BME280;16272;48.188;9.964;2022-08-18T06:50:56;95435.56;;;20.32;70.34
29247;BME280;16272;48.188;9.964;2022-08-18T06:59:20;95442.63;;;19.38;75.74
29247;BME280;16272;48.188;9.964;2022-08-18T07:01:50;95431.44;;;20.92;70.66
29247;BME280;16272;48.188;9.964;2022-08-18T07:06:55;95435.94;;;20.98;70.84
29247;BME280;16272;48.188;9.964;2022-08-18T07:09:24;95440.59;;;20.47;72.83
29247;BME280;16272;48.188;9.964;2022-08-18T07:12:04;95436.22;;;21.08;69.66
29247;BME280;16272;48.188;9.964;2022-08-18T07:14:30;95452.94;;;20.80;70.83
29247;BME280;16272;48.188;9.964;2022-08-18T07:17:06;95452.19;;;20.04;73.93
29247;BME280;16272;48.188;9.964;2022-08-18T07:19:32;95458.16;;;19.81;74.08
29247;BME280;16272;48.188;9.964;2022-08-18T07:22:12;95454.78;;;19.86;74.13
29247;BME280;16272;48.188;9.964;2022-08-18T07:24:58;95439.00;;;20.39;73.34
29247;BME280;16272;48.188;9.964;2022-08-18T07:27:46;95452.06;;;20.43;72.57
29247;BME280;16272;48.188;9.964;2022-08-18T07:35:54;95474.72;;;19.85;73.64
29247;BME280;16272;48.188;9.964;2022-08-18T07:38:29;95473.09;;;20.34;72.22
29247;BME280;16272;48.188;9.964;2022-08-18T07:41:15;95482.13;;;20.71;71.88
29247;BME280;16272;48.188;9.964;2022-08-18T07:46:20;95476.50;;;20.91;70.95
29247;BME280;16272;48.188;9.964;2022-08-18T07:48:47;95482.50;;;21.49;69.88
29247;BME280;16272;48.188;9.964;2022-08-18T08:05:20;95464.31;;;21.87;68.11
29247;BME280;16272;48.188;9.964;2022-08-18T08:07:55;95452.22;;;22.43;64.40
29247;BME280;16272;48.188;9.964;2022-08-18T08:10:25;95453.19;;;23.94;63.49
29247;BME280;16272;48.188;9.964;2022-08-18T08:13:11;95461.78;;;22.15;65.94
29247;BME280;16272;48.188;9.964;2022-08-18T08:15:51;95462.44;;;22.65;66.37
29247;BME280;16272;48.188;9.964;2022-08-18T08:18:38;95463.19;;;22.18;64.22
29247;BME280;16272;48.188;9.964;2022-08-18T08:21:09;95457.69;;;22.95;64.62
29247;BME280;16272;48.188;9.964;2022-08-18T08:23:49;95459.13;;;22.39;63.46
29247;BME280;16272;48.188;9.964;2022-08-18T08:29:07;95456.94;;;23.36;63.46
29247;BME280;16272;48.188;9.964;2022-08-18T08:31:59;95463.09;;;22.25;66.06
29247;BME280;16272;48.188;9.964;2022-08-18T08:34:38;95460.44;;;22.60;65.68
29247;BME280;16272;48.188;9.964;2022-08-18T08:37:09;95465.25;;;23.46;65.03
29247;BME280;16272;48.188;9.964;2022-08-18T08:45:22;95450.63;;;24.04;62.14
29247;BME280;16272;48.188;9.964;2022-08-18T08:48:09;95443.00;;;23.73;61.90
29247;BME280;16272;48.188;9.964;2022-08-18T08:50:44;95449.47;;;23.02;60.39
29247;BME280;16272;48.188;9.964;2022-08-18T08:53:19;95438.88;;;22.77;64.04
29247;BME280;16272;48.188;9.964;2022-08-18T08:55:50;95418.97;;;23.93;60.17
29247;BME280;16272;48.188;9.964;2022-08-18T08:58:34;95409.78;;;23.08;61.12
29247;BME280;16272;48.188;9.964;2022-08-18T09:01:03;95410.97;;;23.12;62.16
29247;BME280;16272;48.188;9.964;2022-08-18T09:03:40;95412.13;;;23.91;61.57
29247;BME280;16272;48.188;9.964;2022-08-18T09:06:31;95407.19;;;24.72;58.28
29247;BME280;16272;48.188;9.964;2022-08-18T09:14:42;95423.69;;;25.27;58.57
29247;BME280;16272;48.188;9.964;2022-08-18T09:17:53;95432.84;;;24.82;57.06
29247;BME280;16272;48.188;9.964;2022-08-18T09:20:47;95441.75;;;23.63;62.04
29247;BME280;16272;48.188;9.964;2022-08-18T09:23:20;95435.25;;;25.00;59.56
29247;BME280;16272;48.188;9.964;2022-08-18T09:25:52;95441.34;;;24.68;62.43
29247;BME280;16272;48.188;9.964;2022-08-18T09:28:41;95448.41;;;24.01;61.78
29247;BME280;16272;48.188;9.964;2022-08-18T09:31:31;95443.22;;;24.17;64.19
29247;BME280;16272;48.188;9.964;2022-08-18T09:34:12;95449.50;;;24.34;64.73
29247;BME280;16272;48.188;9.964;2022-08-18T09:39:48;95421.03;;;23.28;63.33
29247;BME280;16272;48.188;9.964;2022-08-18T09:45:52;95443.34;;;24.95;60.86
29247;BME280;16272;48.188;9.964;2022-08-18T09:48:33;95441.13;;;26.08;58.36
29247;BME280;16272;48.188;9.964;2022-08-18T09:56:12;95432.34;;;25.73;57.84
29247;BME280;16272;48.188;9.964;2022-08-18T09:58:52;95431.06;;;26.78;54.13
29247;BME280;16272;48.188;9.964;2022-08-18T10:01:34;95422.38;;;25.12;56.16
29247;BME280;16272;48.188;9.964;2022-08-18T10:06:43;95405.44;;;25.77;57.61
29247;BME280;16272;48.188;9.964;2022-08-18T10:09:26;95397.63;;;25.85;57.00
29247;BME280;16272;48.188;9.964;2022-08-18T10:21:06;95361.06;;;25.44;56.20
29247;BME280;16272;48.188;9.964;2022-08-18T10:23:52;95359.97;;;24.73;57.81
29247;BME280;16272;48.188;9.964;2022-08-18T10:29:04;95368.25;;;25.06;55.25
29247;BME280;16272;48.188;9.964;2022-08-18T10:40:13;95357.69;;;25.09;54.18
29247;BME280;16272;48.188;9.964;2022-08-18T10:42:54;95343.56;;;25.62;56.79
29247;BME280;16272;48.188;9.964;2022-08-18T10:45:44;95323.06;;;25.49;58.90
29247;BME280;16272;48.188;9.964;2022-08-18T10:53:53;95313.63;;;27.58;49.70
29247;BME280;16272;48.188;9.964;2022-08-18T11:01:54;95304.09;;;26.72;51.25
29247;BME280;16272;48.188;9.964;2022-08-18T11:04:34;95284.97;;;27.81;48.92
29247;BME280;16272;48.188;9.964;2022-08-18T11:07:19;95295.97;;;26.34;50.84
29247;BME280;16272;48.188;9.964;2022-08-18T11:09:54;95287.13;;;26.12;52.86
29247;BME280;16272;48.188;9.964;2022-08-18T11:20:44;95284.97;;;26.62;52.52
29247;BME280;16272;48.188;9.964;2022-08-18T11:23:15;95272.72;;;25.79;52.34
29247;BME280;16272;48.188;9.964;2022-08-18T11:25:47;95259.81;;;26.44;50.34
29247;BME280;16272;48.188;9.964;2022-08-18T11:28:18;95252.94;;;26.89;49.20
29247;BME280;16272;48.188;9.964;2022-08-18T11:30:47;95257.69;;;27.40;51.28
29247;BME280;16272;48.188;9.964;2022-08-18T11:33:16;95242.78;;;26.11;51.17
29247;BME280;16272;48.188;9.964;2022-08-18T11:35:54;95243.25;;;27.65;47.83
29247;BME280;16272;48.188;9.964;2022-08-18T11:38:23;95238.31;;;28.03;47.78
29247;BME280;16272;48.188;9.964;2022-08-18T11:40:54;95244.03;;;27.86;49.76
29247;BME280;16272;48.188;9.964;2022-08-18T11:43:35;95259.06;;;27.68;47.25
29247;BME280;16272;48.188;9.964;2022-08-18T11:46:21;95269.94;;;27.38;49.43
29247;BME280;16272;48.188;9.964;2022-08-18T11:48:51;95272.69;;;27.32;50.18
29247;BME280;16272;48.188;9.964;2022-08-18T11:51:26;95274.13;;;26.72;49.33
29247;BME280;16272;48.188;9.964;2022-08-18T11:54:00;95266.31;;;26.91;49.91
29247;BME280;16272;48.188;9.964;2022-08-18T11:56:31;95257.34;;;27.16;48.85
29247;BME280;16272;48.188;9.964;2022-08-18T11:59:29;95252.91;;;26.84;48.83
29247;BME280;16272;48.188;9.964;2022-08-18T12:02:00;95249.22;;;27.31;49.48
29247;BME280;16272;48.188;9.964;2022-08-18T12:04:35;95247.06;;;27.54;47.71
29247;BME280;16272;48.188;9.964;2022-08-18T12:07:15;95242.97;;;27.41;47.60
29247;BME280;16272;48.188;9.964;2022-08-18T12:09:50;95225.19;;;27.23;47.55
29247;BME280;16272;48.188;9.964;2022-08-18T12:12:32;95218.63;;;26.99;46.50
29247;BME280;16272;48.188;9.964;2022-08-18T12:14:59;95208.81;;;28.05;46.54
29247;BME280;16272;48.188;9.964;2022-08-18T12:17:32;95207.25;;;29.20;44.67
29247;BME280;16272;48.188;9.964;2022-08-18T12:19:58;95212.13;;;27.77;47.13
29247;BME280;16272;48.188;9.964;2022-08-18T12:22:36;95218.16;;;27.38;48.32
29247;BME280;16272;48.188;9.964;2022-08-18T12:25:06;95216.25;;;26.39;49.53
29247;BME280;16272;48.188;9.964;2022-08-18T12:27:31;95204.69;;;26.11;51.02
29247;BME280;16272;48.188;9.964;2022-08-18T12:29:58;95201.00;;;25.95;50.70
29247;BME280;16272;48.188;9.964;2022-08-18T12:32:30;95198.41;;;26.69;49.31
29247;BME280;16272;48.188;9.964;2022-08-18T12:34:57;95199.03;;;26.28;50.15
29247;BME280;16272;48.188;9.964;2022-08-18T12:37:24;95204.47;;;27.07;50.11
29247;BME280;16272;48.188;9.964;2022-08-18T12:39:51;95209.31;;;26.79;52.41
29247;BME280;16272;48.188;9.964;2022-08-18T12:42:19;95211.31;;;26.36;52.28
29247;BME280;16272;48.188;9.964;2022-08-18T12:44:45;95215.38;;;26.28;50.11
29247;BME280;16272;48.188;9.964;2022-08-18T12:47:23;95221.59;;;25.81;50.44
29247;BME280;16272;48.188;9.964;2022-08-18T12:49:57;95230.22;;;25.67;51.57
29247;BME280;16272;48.188;9.964;2022-08-18T12:52:23;95233.66;;;25.25;51.45
29247;BME280;16272;48.188;9.964;2022-08-18T12:54:52;95228.13;;;26.17;51.18
29247;BME280;16272;48.188;9.964;2022-08-18T12:57:23;95232.56;;;26.34;49.85
29247;BME280;16272;48.188;9.964;2022-08-18T12:59:49;95216.25;;;26.44;49.74
29247;BME280;16272;48.188;9.964;2022-08-18T13:02:14;95212.09;;;27.00;49.37
29247;BME280;16272;48.188;9.964;2022-08-18T13:04:39;95212.97;;;26.37;50.75
29247;BME280;16272;48.188;9.964;2022-08-18T13:07:05;95214.34;;;27.39;48.67
29247;BME280;16272;48.188;9.964;2022-08-18T13:09:34;95209.72;;;26.45;50.30
29247;BME280;16272;48.188;9.964;2022-08-18T13:12:02;95206.31;;;26.70;51.46
29247;BME280;16272;48.188;9.964;2022-08-18T13:14:28;95204.19;;;27.85;48.60
29247;BME280;16272;48.188;9.964;2022-08-18T13:16:55;95196.31;;;27.17;48.84
29247;BME280;16272;48.188;9.964;2022-08-18T13:19:20;95190.28;;;27.87;48.09
29247;BME280;16272;48.188;9.964;2022-08-18T13:21:46;95191.25;;;26.63;49.71
29247;BME280;16272;48.188;9.964;2022-08-18T13:24:13;95189.91;;;26.60;49.77
29247;BME280;16272;48.188;9.964;2022-08-18T13:26:42;95188.41;;;27.46;49.92
29247;BME280;16272;48.188;9.964;2022-08-18T13:29:08;95184.91;;;26.36;51.60
29247;BME280;16272;48.188;9.964;2022-08-18T13:31:34;95188.88;;;26.08;52.84
29247;BME280;16272;48.188;9.964;2022-08-18T13:34:01;95185.16;;;26.30;52.84
29247;BME280;16272;48.188;9.964;2022-08-18T13:36:28;95186.97;;;26.09;50.99
29247;BME280;16272;48.188;9.964;2022-08-18T13:39:10;95190.88;;;27.32;50.72
29247;BME280;16272;48.188;9.964;2022-08-18T13:41:38;95193.13;;;25.94;51.74
29247;BME280;16272;48.188;9.964;2022-08-18T13:44:07;95199.53;;;26.83;50.22
29247;BME280;16272;48.188;9.964;2022-08-18T13:46:38;95198.78;;;26.35;50.96
29247;BME280;16272;48.188;9.964;2022-08-18T13:49:15;95194.34;;;26.18;53.35
29247;BME280;16272;48.188;9.964;2022-08-18T13:51:42;95195.19;;;26.19;51.96
29247;BME280;16272;48.188;9.964;2022-08-18T13:54:23;95189.84;;;25.92;51.71
29247;BME280;16272;48.188;9.964;2022-08-18T13:56:49;95177.47;;;25.68;52.49
29247;BME280;16272;48.188;9.964;2022-08-18T13:59:15;95186.03;;;25.45;53.41
29247;BME280;16272;48.188;9.964;2022-08-18T14:01:45;95180.00;;;25.85;54.60
29247;BME280;16272;48.188;9.964;2022-08-18T14:04:12;95187.66;;;25.94;53.73
29247;BME280;16272;48.188;9.964;2022-08-18T14:06:38;95176.75;;;25.83;52.67
29247;BME280;16272;48.188;9.964;2022-08-18T14:09:03;95187.56;;;26.21;51.90
29247;BME280;16272;48.188;9.964;2022-08-18T14:11:29;95190.22;;;26.64;51.94
29247;BME280;16272;48.188;9.964;2022-08-18T14:13:56;95180.28;;;25.89;51.77
29247;BME280;16272;48.188;9.964;2022-08-18T14:16:23;95179.31;;;26.69;50.18
29247;BME280;16272;48.188;9.964;2022-08-18T14:18:49;95181.03;;;27.11;50.50
29247;BME280;16272;48.188;9.964;2022-08-18T14:21:42;95181.91;;;25.80;53.30
29247;BME280;16272;48.188;9.964;2022-08-18T14:24:27;95189.78;;;25.39;53.26
29247;BME280;16272;48.188;9.964;2022-08-18T14:27:17;95194.03;;;26.04;51.97
29247;BME280;16272;48.188;9.964;2022-08-18T14:29:43;95186.97;;;26.87;50.36
29247;BME280;16272;48.188;9.964;2022-08-18T14:32:11;95193.91;;;25.89;52.33
29247;BME280;16272;48.188;9.964;2022-08-18T14:34:37;95189.69;;;26.77;50.89
29247;BME280;16272;48.188;9.964;2022-08-18T14:37:02;95194.06;;;26.83;50.77
29247;BME280;16272;48.188;9.964;2022-08-18T14:39:28;95193.31;;;26.25;52.41
29247;BME280;16272;48.188;9.964;2022-08-18T14:41:55;95197.00;;;25.98;52.59
29247;BME280;16272;48.188;9.964;2022-08-18T14:44:23;95195.53;;;26.43;52.38
29247;BME280;16272;48.188;9.964;2022-08-18T14:46:48;95208.31;;;25.84;53.49
29247;BME280;16272;48.188;9.964;2022-08-18T14:49:13;95202.25;;;26.20;52.25
29247;BME280;16272;48.188;9.964;2022-08-18T14:51:39;95203.06;;;26.78;51.09
29247;BME280;16272;48.188;9.964;2022-08-18T14:54:10;95206.59;;;26.16;52.50
29247;BME280;16272;48.188;9.964;2022-08-18T14:56:36;95206.56;;;25.68;54.63
29247;BME280;16272;48.188;9.964;2022-08-18T14:59:03;95191.00;;;25.96;51.85
29247;BME280;16272;48.188;9.964;2022-08-18T15:01:35;95196.63;;;25.89;52.87
29247;BME280;16272;48.188;9.964;2022-08-18T15:04:01;95191.09;;;26.16;52.75
29247;BME280;16272;48.188;9.964;2022-08-18T15:06:27;95195.44;;;26.12;54.86
29247;BME280;16272;48.188;9.964;2022-08-18T15:08:54;95199.97;;;25.96;52.80
29247;BME280;16272;48.188;9.964;2022-08-18T15:11:19;95201.94;;;26.06;52.12
29247;BME280;16272;48.188;9.964;2022-08-18T15:13:44;95194.00;;;25.99;51.95
29247;BME280;16272;48.188;9.964;2022-08-18T15:16:21;95184.13;;;26.46;52.27
29247;BME280;16272;48.188;9.964;2022-08-18T15:18:47;95183.94;;;26.63;52.01
29247;BME280;16272;48.188;9.964;2022-08-18T15:21:13;95185.09;;;26.14;53.91
29247;BME280;16272;48.188;9.964;2022-08-18T15:23:57;95197.03;;;25.65;54.39
29247;BME280;16272;48.188;9.964;2022-08-18T15:26:41;95192.75;;;25.75;54.59
29247;BME280;16272;48.188;9.964;2022-08-18T15:29:08;95199.94;;;25.54;55.70
29247;BME280;16272;48.188;9.964;2022-08-18T15:31:47;95201.56;;;25.55;56.91